KELK

Elk City Regional Business Airport

Elk City, Oklahoma, USA
METAR KELK 161535Z AUTO 09005KT 10SM CLR 11/01 A3012 RMK AO2 T01100014
Observed Flight Rules
Nov-16 @ 15:35 UTC (30 minutes ago) Visual Flight Rules
Wind Visibility Clouds
90° at 5 knots 10 miles
  • Clear skies
Temperatures Readings
Current 11°C / 52°F
Dewpoint 1°C / 34°F
Humidity 50%
Altimeter 30.12" Hg
Pressure 1020 hPa
Elevation 610
METAR KELK 161535Z AUTO 09005KT 10SM CLR 11/01 A3012 RMK AO2 T01100014
Observed Flight Rules
Nov-16 @ 15:35 UTC
(30 minutes ago)
VFR
Wind Visibility
90° at 5 knots 10 miles
Clouds
  • Clear skies
Temperature Dewpoint
11°C / 52°F 1°C / 34°F
Humidity Altimeter Pressure
50% 30.12" Hg 1020 hPa